Latest Weather Observations for Georgetown Airport

IDQ60801

Issued at 11:05 am EST Saturday 22 November 2014 (issued every 30 minutes, with the page automatically refreshed every 10 minutes)

About weather observations | Map of weather stations | Latest weather observations for QLD | Other Formats
Station Details ID: 030124 Name: GEORGETOWN AIRPORT Lat: -18.30 Lon: 143.53 Height: 301.77 m
Data from the previous 72 hours. | See also: Recent months at Georgetown Airport
Date/Time
EST
Temp
°C
App
Temp
°C
Dew
Point
Rel
Hum
%
Delta-T
°C
Wind Press
QNH
hPa
Press
MSL
hPa
Rain
since 9 am
mm
Dir
 
Spd
km/h
Gust
km/h
Spd
kts
Gust
kts
22/11:00am 34.1 35.1 17.8 38 10.6 SE 9 17 5 9 1013.4 - 0.0
22/10:30am 33.3 33.8 18.3 41 9.8 NE 13 19 7 10 1013.6 - 0.0
22/10:00am 33.0 34.0 18.7 42 9.4 NNE 11 22 6 12 1014.0 - 0.0
22/09:30am 31.2 31.4 18.5 46 8.3 NNE 15 26 8 14 1014.1 - 0.0
22/09:00am 30.8 30.2 18.5 47 8.0 ENE 19 24 10 13 1014.1 1012.0 0.0
22/08:30am 30.2 29.5 18.6 49 7.6 NE 20 26 11 14 1014.0 - 0.0
22/08:00am 29.5 28.8 18.6 52 7.1 NE 20 26 11 14 1013.8 - 0.0
22/07:30am 28.5 27.5 18.0 53 6.8 NNE 20 28 11 15 1013.5 - 0.0
22/07:00am 28.1 26.8 18.2 55 6.4 NNE 22 30 12 16 1013.4 - 0.0
22/06:30am 27.9 27.0 18.3 56 6.2 NE 20 26 11 14 1012.8 - 0.0
22/06:00am 27.8 27.1 18.2 56 6.2 NE 19 26 10 14 1012.6 1010.4 0.0
22/05:30am 28.2 27.5 18.3 55 6.4 NE 19 24 10 13 1012.5 - 0.0
22/05:00am 28.7 27.9 17.9 52 6.9 NNE 19 24 10 13 1012.0 - 0.0
22/04:30am 29.4 28.0 16.6 46 8.1 NNE 19 28 10 15 1011.7 - 0.0
22/04:00am 29.8 27.9 16.6 45 8.4 NNE 22 32 12 17 1011.4 - 0.0
22/03:30am 30.2 29.0 16.2 42 8.8 NNE 17 20 9 11 1011.2 - 0.0
22/03:00am 29.6 29.3 16.4 45 8.3 NE 13 15 7 8 1011.3 1009.1 0.0
22/02:30am 28.8 29.9 16.7 48 7.6 ENE 6 9 3 5 1011.4 - 0.0
22/02:00am 29.0 31.2 16.5 46 7.9 CALM 0 0 0 0 1011.7 - 0.0
22/01:30am 29.6 31.5 16.8 46 8.1 SE 2 7 1 4 1011.5 - 0.0
22/01:00am 29.7 31.1 16.5 45 8.3 S 4 13 2 7 1011.8 - 0.0
22/12:30am 29.9 31.8 16.7 45 8.4 W 2 7 1 4 1012.0 - 0.0
22/12:00am 30.1 31.1 16.9 45 8.4 S 7 11 4 6 1012.4 1010.2 0.0
 
Date/Time
EST
Temp
°C
App
Temp
°C
Dew
Point
Rel
Hum
%
Delta-T
°C
Wind Press
QNH
hPa
Press
MSL
hPa
Rain
since 9 am
mm
Dir
 
Spd
km/h
Gust
km/h
Spd
kts
Gust
kts
21/11:30pm 30.4 30.6 16.8 44 8.7 S 11 17 6 9 1012.2 - 0.0
21/11:00pm 30.7 29.6 16.3 42 9.1 S 17 24 9 13 1012.0 - 0.0
21/10:30pm 30.7 31.2 15.5 39 9.5 SSE 7 11 4 6 1011.8 - 0.0
21/10:00pm 31.2 30.6 15.6 39 9.8 SE 13 24 7 13 1011.3 - 0.0
21/09:30pm 32.1 29.6 15.1 35 10.6 S 22 32 12 17 1011.1 - 0.0
21/09:00pm 34.2 31.9 14.1 29 12.5 S 19 32 10 17 1010.6 1008.4 0.0
21/08:30pm 34.5 33.1 11.0 24 13.9 S 9 13 5 7 1010.1 - 0.0
21/08:00pm 33.7 33.1 9.0 22 14.2 NE 2 9 1 5 1009.2 - 0.0
21/07:30pm 34.6 34.4 9.1 21 14.7 CALM 0 0 0 0 1008.8 - 0.0
21/07:00pm 36.6 35.9 8.4 18 16.2 NNE 2 6 1 3 1008.5 - 0.0
21/06:30pm 38.3 36.5 8.1 16 17.4 NE 7 9 4 5 1007.8 - 0.0
21/06:00pm 39.1 36.9 7.7 15 18.1 NE 9 15 5 8 1007.3 1005.1 0.0
21/05:30pm 39.7 36.1 8.2 15 18.3 E 17 22 9 12 1007.3 - 0.0
21/05:00pm 40.0 38.2 9.4 16 18.1 N 9 20 5 11 1007.3 - 0.0
21/04:30pm 39.7 37.2 10.9 18 17.4 NNW 15 24 8 13 1007.4 - 0.0
21/04:00pm 40.1 39.3 12.8 19 17.0 N 9 22 5 12 1008.0 - 0.0
21/03:30pm 39.6 38.6 12.4 20 16.8 SW 9 13 5 7 1008.5 - 0.0
21/03:00pm 38.8 37.9 12.5 21 16.2 WNW 9 20 5 11 1009.0 1006.8 0.0
21/02:30pm 37.9 37.6 13.2 23 15.3 E 7 11 4 6 1009.7 - 0.0
21/02:00pm 38.2 37.0 14.1 24 15.1 ENE 13 28 7 15 1010.4 - 0.0
21/01:30pm 36.5 36.0 15.0 27 13.6 ENE 11 17 6 9 1011.2 - 0.0
21/01:00pm 35.9 36.2 15.1 29 13.2 SE 7 17 4 9 1011.9 - 0.0
21/12:30pm 35.7 36.0 15.9 30 12.7 N 9 13 5 7 1012.6 - 0.0
21/12:00pm 34.7 35.4 16.1 33 11.9 ESE 7 11 4 6 1013.3 1011.1 0.0
21/11:30am 34.0 33.7 16.4 35 11.3 N 13 20 7 11 1013.9 - 0.0
21/11:00am 34.2 34.3 17.4 36 10.9 NNW 13 20 7 11 1014.1 - 0.0
21/10:30am 32.4 33.5 17.1 40 9.8 N 7 11 4 6 1014.8 - 0.0
21/10:00am 32.0 33.0 17.8 42 9.2 N 9 17 5 9 1015.2 - 0.0
21/09:30am 29.9 30.4 17.4 47 8.0 ENE 11 17 6 9 1015.6 - 0.0
21/09:00am 29.5 29.8 18.0 50 7.4 NE 13 17 7 9 1015.6 1013.4 0.0
21/08:30am 28.9 29.8 18.4 53 6.8 NE 11 20 6 11 1015.7 - 0.0
21/08:00am 28.2 28.8 18.6 56 6.2 ENE 13 17 7 9 1015.6 - 0.0
21/07:30am 27.7 28.3 18.7 58 5.8 E 13 20 7 11 1015.3 - 0.0
21/07:00am 27.1 27.8 18.9 61 5.3 ENE 13 17 7 9 1014.8 - 0.0
21/06:30am 26.6 27.2 18.7 62 5.1 ENE 13 19 7 10 1014.1 - 0.0
21/06:00am 26.5 26.9 18.1 60 5.4 NE 13 17 7 9 1013.3 1011.1 0.0
21/05:30am 26.5 27.4 18.4 61 5.2 NE 11 15 6 8 1013.0 - 0.0
21/05:00am 27.1 27.6 18.4 59 5.6 NE 13 19 7 10 1012.7 - 0.0
21/04:30am 27.4 27.8 18.1 57 6.0 NE 13 17 7 9 1012.5 - 0.0
21/04:00am 27.8 28.5 17.9 54 6.3 N 11 17 6 9 1012.3 - 0.0
21/03:30am 28.3 28.6 17.8 53 6.7 N 13 17 7 9 1011.8 - 0.0
21/03:00am 28.8 28.4 18.0 52 7.0 NNE 17 24 9 13 1011.4 1009.2 0.0
21/02:30am 29.0 29.1 15.5 44 8.4 NNE 9 13 5 7 1011.1 - 0.0
21/02:00am 29.4 28.7 14.4 40 9.2 NNE 11 15 6 8 1011.0 - 0.0
21/01:30am 29.8 28.7 13.1 36 10.0 N 11 15 6 8 1011.0 - 0.0
21/01:00am 29.0 28.5 12.8 36 9.7 N 7 9 4 5 1011.3 - 0.0
21/12:30am 28.9 28.5 12.3 36 9.8 ENE 6 7 3 4 1011.4 - 0.0
21/12:00am 29.4 28.9 12.8 36 9.9 NE 7 11 4 6 1011.6 1009.4 0.0
 
Date/Time
EST
Temp
°C
App
Temp
°C
Dew
Point
Rel
Hum
%
Delta-T
°C
Wind Press
QNH
hPa
Press
MSL
hPa
Rain
since 9 am
mm
Dir
 
Spd
km/h
Gust
km/h
Spd
kts
Gust
kts
20/11:30pm 29.0 28.7 13.2 37 9.5 E 7 11 4 6 1011.6 - 0.0
20/11:00pm 28.3 29.5 13.8 41 8.8 CALM 0 0 0 0 1011.4 - 0.0
20/10:30pm 28.9 30.3 14.3 40 8.9 CALM 0 0 0 0 1011.4 - 0.0
20/10:00pm 29.4 30.7 14.0 39 9.4 CALM 0 0 0 0 1011.5 - 0.0
20/09:30pm 30.2 31.4 13.9 37 9.9 CALM 0 0 0 0 1011.3 - 0.0
20/09:00pm 30.8 31.9 13.6 35 10.5 CALM 0 0 0 0 1011.1 1008.9 0.0
20/08:30pm 31.6 32.8 13.8 34 10.9 CALM 0 0 0 0 1011.0 - 0.0
20/08:00pm 32.4 32.4 13.6 32 11.5 N 6 7 3 4 1010.6 - 0.0
20/07:30pm 34.0 34.1 14.0 30 12.4 NNE 6 7 3 4 1010.3 - 0.0
20/07:00pm 35.5 35.7 14.2 28 13.3 N 6 7 3 4 1010.1 - 0.0
20/06:30pm 36.2 36.2 13.6 25 14.0 N 6 7 3 4 1009.7 - 0.0
20/06:00pm 36.7 36.7 14.1 26 14.2 NNE 7 15 4 8 1009.4 1007.2 0.0
20/05:30pm 37.1 36.4 14.4 26 14.3 N 11 19 6 10 1009.2 - 0.0
20/05:00pm 37.3 36.6 13.3 23 14.9 ENE 9 17 5 9 1009.1 - 0.0
20/04:30pm 37.4 37.0 14.0 24 14.6 ENE 9 17 5 9 1009.2 - 0.0
20/04:00pm 37.5 37.5 15.3 26 14.2 NNW 9 17 5 9 1009.6 - 0.0
20/03:30pm 36.6 36.9 15.1 27 13.6 NE 7 15 4 8 1009.8 - 0.0
20/03:00pm 36.9 37.7 15.9 28 13.5 NNW 6 11 3 6 1010.3 1008.1 0.0
20/02:30pm 36.4 35.7 16.5 30 12.9 NNE 15 24 8 13 1010.8 - 0.0
20/02:00pm 35.3 35.8 16.6 33 12.1 NE 9 20 5 11 1011.4 - 0.0
20/01:30pm 34.9 35.8 16.7 34 11.7 NNW 7 15 4 8 1012.2 - 0.0
20/01:00pm 34.3 34.8 16.6 34 11.4 NE 9 15 5 8 1012.9 - 0.0
20/12:30pm 33.5 33.7 16.8 36 10.7 N 11 20 6 11 1013.4 - 0.0
20/12:00pm 32.5 32.1 16.3 37 10.3 NNE 13 20 7 11 1014.1 1012.0 0.0
20/11:30am 32.3 33.4 17.0 40 9.8 NNE 7 15 4 8 1015.0 - 0.0
20/11:00am 30.6 30.0 16.6 43 8.9 NE 15 20 8 11 1015.5 - 0.0
20/10:30am 29.3 28.4 16.8 47 7.9 NNE 17 24 9 13 1015.5 - 0.0
20/10:00am 28.4 29.7 17.6 52 6.9 N 7 13 4 7 1016.0 - 0.0
20/09:30am 27.6 27.7 17.5 54 6.4 NNE 13 15 7 8 1016.3 - 0.0
20/09:00am 27.4 28.0 17.6 55 6.2 NNE 11 17 6 9 1016.3 1014.1 0.0
20/08:30am 27.4 27.6 17.6 55 6.2 N 13 19 7 10 1016.2 - 0.0
20/08:00am 26.9 27.1 17.7 57 5.9 NNE 13 20 7 11 1016.2 - 0.0
20/07:30am 26.7 26.8 17.5 57 5.8 NNE 13 19 7 10 1016.2 - 0.0
20/07:00am 27.3 26.7 17.5 55 6.2 NNE 17 22 9 12 1015.6 - 0.0
20/06:30am 27.3 27.6 16.9 53 6.6 NE 11 19 6 10 1015.1 - 0.0
20/06:00am 27.0 26.3 16.3 52 6.7 ENE 15 19 8 10 1014.1 1012.0 0.0
20/05:30am 27.0 26.5 16.0 51 6.8 NE 13 17 7 9 1013.6 - 0.0
20/05:00am 27.6 27.0 15.6 48 7.4 NE 13 17 7 9 1013.3 - 0.0
20/04:30am 28.1 27.0 15.4 46 7.9 NNE 15 20 8 11 1012.9 - 0.0
20/04:00am 28.5 26.4 14.7 43 8.5 NNE 19 28 10 15 1012.6 - 0.0
20/03:30am 29.0 27.1 15.2 43 8.5 NNE 19 28 10 15 1012.1 - 0.0
20/03:00am 29.5 27.6 14.1 39 9.4 NNE 17 24 9 13 1011.9 1009.7 0.0
20/02:30am 30.0 27.6 13.7 37 9.9 NNE 19 26 10 14 1011.8 - 0.0
20/02:00am 30.5 28.2 14.2 37 10.0 NNE 19 28 10 15 1011.8 - 0.0
20/01:30am 31.2 28.3 13.9 35 10.6 NNE 22 35 12 19 1011.9 - 0.0
20/01:00am 31.4 30.0 16.6 41 9.4 NNE 19 24 10 13 1012.0 - 0.0
20/12:30am 32.1 30.9 16.0 38 10.2 NNE 17 24 9 13 1012.1 - 0.0
20/12:00am 32.7 31.0 15.7 36 10.7 NNE 19 28 10 15 1011.7 1009.5 0.0
 
Date/Time
EST
Temp
°C
App
Temp
°C
Dew
Point
Rel
Hum
%
Delta-T
°C
Wind Press
QNH
hPa
Press
MSL
hPa
Rain
since 9 am
mm
Dir
 
Spd
km/h
Gust
km/h
Spd
kts
Gust
kts
19/11:30pm 33.5 30.9 15.0 32 11.6 NNE 22 30 12 16 1011.8 - 0.0
19/11:00pm 34.4 32.2 14.8 30 12.3 NNE 20 28 11 15 1011.7 - 0.0
19/10:30pm 34.9 33.4 14.2 28 12.9 NE 15 20 8 11 1011.6 - 0.0
19/10:00pm 35.4 32.7 13.5 26 13.5 ENE 20 28 11 15 1011.2 - 0.0
19/09:30pm 35.5 33.4 12.5 25 14.0 ENE 15 20 8 11 1010.6 - 0.0
19/09:00pm 32.7 32.5 12.9 30 12.0 E 6 11 3 6 1010.3 1008.1 0.0
19/08:30pm 33.0 33.8 12.6 29 12.3 CALM 0 4 0 2 1010.1 - 0.0
19/08:00pm 33.5 34.3 12.5 28 12.7 CALM 0 6 0 3 1010.0 - 0.0
19/07:30pm 34.9 34.4 12.5 25 13.6 WSW 7 9 4 5 1009.7 - 0.0
19/07:00pm 35.5 35.0 12.5 25 14.0 WNW 7 9 4 5 1009.6 - 0.0
19/06:30pm 36.5 35.0 12.0 23 14.9 W 11 15 6 8 1009.5 - 0.0
19/06:00pm 37.7 36.5 11.6 21 15.8 WNW 9 11 5 6 1009.3 1007.1 0.0
19/05:30pm 38.6 38.0 11.6 20 16.4 SW 6 11 3 6 1009.2 - 0.0
19/05:00pm 38.5 37.5 12.3 21 16.1 N 9 13 5 7 1009.1 - 0.0
19/04:30pm 38.9 37.4 11.9 20 16.5 NE 11 20 6 11 1009.4 - 0.0
19/04:00pm 38.0 37.5 12.6 22 15.6 WNW 7 17 4 9 1009.6 - 0.0
19/03:30pm 38.0 37.3 13.3 23 15.3 WNW 9 19 5 10 1009.9 - 0.0
19/03:00pm 38.1 37.4 13.3 22 15.4 N 9 17 5 9 1010.3 1008.1 0.0
19/02:30pm 38.4 36.1 12.9 22 15.8 SW 17 24 9 13 1010.7 - 0.0
19/02:00pm 37.9 37.0 13.8 23 15.1 NNW 11 20 6 11 1011.4 - 0.0
19/01:30pm 36.9 35.2 13.6 24 14.5 NNE 15 24 8 13 1012.1 - 0.0
19/01:00pm 36.0 35.8 14.6 27 13.4 SSE 9 13 5 7 1012.8 - 0.0
19/12:30pm 35.6 35.9 15.9 31 12.6 NW 9 17 5 9 1013.5 - 0.0
19/12:00pm 34.8 35.3 16.6 33 11.7 NNE 9 17 5 9 1014.1 1012.0 0.0
19/11:30am 33.8 33.6 16.6 35 11.0 NNE 13 20 7 11 1014.8 - 0.0

Other Formats:

Comma delimited format used in spreadsheet applications
http://www.bom.gov.au/fwo/IDQ60801/IDQ60801.94274.axf

JavaScript Object Notation format (JSON) in row-major order
http://www.bom.gov.au/fwo/IDQ60801/IDQ60801.94274.json